createdAt,value
2018-12-22T00:00:02.679Z,8
2018-12-22T00:01:03.008Z,8.06
2018-12-22T00:02:02.276Z,8
2018-12-22T00:03:02.680Z,8
2018-12-22T00:04:03.053Z,8
2018-12-22T00:05:02.346Z,8.06
2018-12-22T00:06:02.597Z,8.12
2018-12-22T00:07:02.907Z,8
2018-12-22T00:08:03.245Z,8
2018-12-22T00:09:02.581Z,8.06
2018-12-22T00:10:02.824Z,8
2018-12-22T00:11:03.158Z,7.87
2018-12-22T00:12:02.439Z,7.93
2018-12-22T00:13:02.774Z,7.93
2018-12-22T00:14:03.133Z,8.06
2018-12-22T00:15:02.426Z,7.93
2018-12-22T00:16:02.752Z,8
2018-12-22T00:17:03.067Z,8
2018-12-22T00:18:02.344Z,7.93
2018-12-22T00:19:02.730Z,8.06
2018-12-22T00:20:03.045Z,8.06
2018-12-22T00:21:02.350Z,8.06
2018-12-22T00:22:02.665Z,8.06
2018-12-22T00:23:02.985Z,8.06
2018-12-22T00:24:02.271Z,7.93
2018-12-22T00:25:02.601Z,7.81
2018-12-22T00:26:03.010Z,8.06
2018-12-22T00:27:02.278Z,8.06
2018-12-22T00:28:02.600Z,8.06
2018-12-22T00:29:02.946Z,8.06
2018-12-22T00:30:03.229Z,8.12
2018-12-22T00:31:02.563Z,8.06
2018-12-22T00:32:02.840Z,8.18
2018-12-22T00:33:03.165Z,8.12
2018-12-22T00:34:02.488Z,8
2018-12-22T00:35:02.758Z,8.06
2018-12-22T00:36:03.135Z,8
2018-12-22T00:37:02.432Z,7.93
2018-12-22T00:38:02.753Z,8
2018-12-22T00:39:03.050Z,8
2018-12-22T00:40:02.371Z,7.93
2018-12-22T00:41:02.674Z,8
2018-12-22T00:42:03.063Z,8
2018-12-22T00:43:02.353Z,8.12
2018-12-22T00:44:02.647Z,8.06
2018-12-22T00:45:02.912Z,8
2018-12-22T00:46:03.155Z,8.06
2018-12-22T00:47:02.446Z,8.06
2018-12-22T00:48:02.805Z,8
2018-12-22T00:49:03.128Z,8.12
2018-12-22T00:50:02.444Z,8
2018-12-22T00:51:02.753Z,7.93
2018-12-22T00:52:03.092Z,8
2018-12-22T00:53:02.371Z,8.06
2018-12-22T00:54:02.771Z,8.06
2018-12-22T00:55:03.097Z,8
2018-12-22T00:56:02.369Z,8
2018-12-22T00:57:02.677Z,7.93
2018-12-22T00:58:03.002Z,7.93
2018-12-22T00:59:02.327Z,7.93
2018-12-22T01:00:02.606Z,7.93
2018-12-22T01:01:02.918Z,7.93
2018-12-22T01:02:03.238Z,7.93
2018-12-22T01:03:02.535Z,7.87
2018-12-22T01:04:02.894Z,8
2018-12-22T01:05:03.206Z,8.06
2018-12-22T01:06:02.520Z,8
2018-12-22T01:07:02.854Z,7.93
2018-12-22T01:08:03.218Z,7.93
2018-12-22T01:09:02.539Z,7.93
2018-12-22T01:10:02.901Z,7.87
2018-12-22T01:11:03.156Z,7.93
2018-12-22T01:12:02.439Z,8.06
2018-12-22T01:13:02.757Z,8
2018-12-22T01:14:03.146Z,8
2018-12-22T01:15:02.522Z,8.12
2018-12-22T01:16:02.896Z,8.12
2018-12-22T01:17:03.167Z,8.06
2018-12-22T01:18:02.437Z,8.12
2018-12-22T01:19:02.775Z,8.12
2018-12-22T01:20:03.080Z,8.25
2018-12-22T01:21:02.409Z,8.12
2018-12-22T01:22:02.774Z,8.12
2018-12-22T01:23:03.099Z,8.06
2018-12-22T01:24:02.375Z,8
2018-12-22T01:25:02.668Z,7.93
2018-12-22T01:26:03.009Z,7.93
2018-12-22T01:27:02.334Z,7.93
2018-12-22T01:28:02.655Z,7.93
2018-12-22T01:29:02.920Z,7.93
2018-12-22T01:30:03.251Z,7.81
2018-12-22T01:31:02.518Z,7.75
2018-12-22T01:32:02.842Z,7.75
2018-12-22T01:33:03.207Z,7.75
2018-12-22T01:34:02.524Z,7.75
2018-12-22T01:35:02.844Z,7.68
2018-12-22T01:36:03.218Z,7.68
2018-12-22T01:37:02.527Z,7.68
2018-12-22T01:38:02.845Z,7.62
2018-12-22T01:39:03.189Z,7.68
2018-12-22T01:40:02.451Z,7.62
2018-12-22T01:41:02.757Z,7.68
2018-12-22T01:42:03.010Z,7.62
2018-12-22T01:43:02.287Z,7.62
2018-12-22T01:44:02.601Z,7.62
2018-12-22T01:45:02.974Z,7.68
2018-12-22T01:46:02.292Z,7.62
2018-12-22T01:47:02.681Z,7.56
2018-12-22T01:48:03.880Z,7.56
2018-12-22T01:49:03.152Z,7.5
2018-12-22T01:50:02.443Z,7.5
2018-12-22T01:51:02.806Z,7.5
2018-12-22T01:52:03.083Z,7.5
2018-12-22T01:53:02.369Z,7.5
2018-12-22T01:54:02.682Z,7.5
2018-12-22T01:55:03.004Z,7.5
2018-12-22T01:56:02.285Z,7.56
2018-12-22T01:57:02.652Z,7.56
2018-12-22T01:58:02.934Z,7.5
2018-12-22T01:59:03.236Z,7.56
2018-12-22T02:00:02.534Z,7.56
2018-12-22T02:01:02.861Z,7.56
2018-12-22T02:02:03.206Z,7.56
2018-12-22T02:03:02.533Z,7.56
2018-12-22T02:04:02.833Z,7.62
2018-12-22T02:05:03.087Z,7.56
2018-12-22T02:06:02.374Z,7.62
2018-12-22T02:07:02.735Z,7.62
2018-12-22T02:08:03.243Z,7.62
2018-12-22T02:09:02.709Z,7.56
2018-12-22T02:10:03.177Z,7.5
2018-12-22T02:11:03.158Z,7.5
2018-12-22T02:12:02.516Z,7.56
2018-12-22T02:13:03.001Z,7.62
2018-12-22T02:14:02.609Z,7.56
2018-12-22T02:15:02.929Z,7.56
2018-12-22T02:16:03.250Z,7.56
2018-12-22T02:17:02.521Z,7.56
2018-12-22T02:18:02.906Z,7.5
2018-12-22T02:19:03.220Z,7.56
2018-12-22T02:20:02.586Z,7.5
2018-12-22T02:21:02.837Z,7.56
2018-12-22T02:22:03.277Z,7.43
2018-12-22T02:23:02.608Z,7.5
2018-12-22T02:24:02.908Z,7.43
2018-12-22T02:25:03.367Z,7.43
2018-12-22T02:26:02.675Z,7.5
2018-12-22T02:27:03.051Z,7.5
2018-12-22T02:28:02.374Z,7.43
2018-12-22T02:29:02.703Z,7.43
2018-12-22T02:30:03.058Z,7.56
2018-12-22T02:31:02.450Z,7.5
2018-12-22T02:32:02.836Z,7.5
2018-12-22T02:33:03.158Z,7.5
2018-12-22T02:34:02.435Z,7.56
2018-12-22T02:35:02.762Z,7.5
2018-12-22T02:36:03.169Z,7.5
2018-12-22T02:37:02.499Z,7.5
2018-12-22T02:38:02.822Z,7.5
2018-12-22T02:39:03.153Z,7.5
2018-12-22T02:40:02.463Z,7.5
2018-12-22T02:41:02.786Z,7.5
2018-12-22T02:42:03.134Z,7.43
2018-12-22T02:43:02.484Z,7.5
2018-12-22T02:44:02.772Z,7.43
2018-12-22T02:45:03.098Z,7.5
2018-12-22T02:46:02.374Z,7.5
2018-12-22T02:47:02.703Z,7.43
2018-12-22T02:48:03.097Z,7.5
2018-12-22T02:49:02.356Z,7.43
2018-12-22T02:50:02.687Z,7.43
2018-12-22T02:51:02.993Z,7.43
2018-12-22T02:52:02.291Z,7.43
2018-12-22T02:53:02.651Z,7.5
2018-12-22T02:54:02.981Z,7.5
2018-12-22T02:55:02.282Z,7.43
2018-12-22T02:56:02.598Z,7.37
2018-12-22T02:57:02.972Z,7.37
2018-12-22T02:58:02.298Z,7.37
2018-12-22T02:59:06.023Z,7.31
2018-12-22T03:00:02.813Z,7.37
2018-12-22T03:01:03.076Z,7.37
2018-12-22T03:02:02.366Z,7.43
2018-12-22T03:03:02.669Z,7.37
2018-12-22T03:04:02.998Z,7.37
2018-12-22T03:05:02.308Z,7.31
2018-12-22T03:06:02.694Z,7.31
2018-12-22T03:07:02.995Z,7.37
2018-12-22T03:08:02.287Z,7.31
2018-12-22T03:09:02.603Z,7.37
2018-12-22T03:10:02.981Z,7.37
2018-12-22T03:11:02.329Z,7.31
2018-12-22T03:12:02.690Z,7.31
2018-12-22T03:13:02.996Z,7.37
2018-12-22T03:14:02.285Z,7.25
2018-12-22T03:15:02.600Z,7.25
2018-12-22T03:16:02.943Z,7.25
2018-12-22T03:17:03.293Z,7.18
2018-12-22T03:18:02.616Z,7.18
2018-12-22T03:19:02.981Z,7.18
2018-12-22T03:20:02.280Z,7.25
2018-12-22T03:21:02.611Z,7.12
2018-12-22T03:22:02.915Z,7.12
2018-12-22T03:23:03.205Z,7.18
2018-12-22T03:24:02.529Z,7.12
2018-12-22T03:25:02.904Z,7.12
2018-12-22T03:26:03.163Z,7.12
2018-12-22T03:27:02.446Z,7.12
2018-12-22T03:28:02.787Z,7.06
2018-12-22T03:29:03.133Z,7.12
2018-12-22T03:30:02.434Z,7.12
2018-12-22T03:31:02.762Z,7.12
2018-12-22T03:32:03.081Z,7.12
2018-12-22T03:33:02.371Z,7.12
2018-12-22T03:34:02.689Z,7.12
2018-12-22T03:35:03.083Z,7.12
2018-12-22T03:36:02.368Z,7.06
2018-12-22T03:37:02.679Z,7
2018-12-22T03:38:03.009Z,7
2018-12-22T03:39:02.274Z,7
2018-12-22T03:40:02.647Z,7
2018-12-22T03:41:02.970Z,7
2018-12-22T03:42:02.283Z,6.93
2018-12-22T03:43:02.595Z,6.93
2018-12-22T03:44:02.846Z,6.87
2018-12-22T03:45:03.177Z,6.87
2018-12-22T03:46:02.531Z,6.87
2018-12-22T03:47:02.935Z,6.87
2018-12-22T03:48:03.232Z,6.87
2018-12-22T03:49:02.538Z,6.87
2018-12-22T03:50:02.840Z,6.87
2018-12-22T03:51:03.160Z,6.81
2018-12-22T03:52:02.491Z,6.81
2018-12-22T03:53:02.815Z,6.93
2018-12-22T03:54:03.080Z,6.93
2018-12-22T03:55:02.460Z,6.93
2018-12-22T03:56:02.761Z,6.87
2018-12-22T03:57:03.086Z,7
2018-12-22T03:58:02.364Z,6.93
2018-12-22T03:59:02.771Z,6.93
2018-12-22T04:00:03.089Z,6.93
2018-12-22T04:01:02.367Z,7
2018-12-22T04:02:02.702Z,7
2018-12-22T04:03:03.001Z,6.93
2018-12-22T04:04:02.294Z,6.93
2018-12-22T04:05:02.661Z,6.93
2018-12-22T04:06:02.934Z,7
2018-12-22T04:07:03.314Z,7
2018-12-22T04:08:02.594Z,7.06
2018-12-22T04:09:02.928Z,7.06
2018-12-22T04:10:03.297Z,7
2018-12-22T04:11:02.591Z,7
2018-12-22T04:12:02.863Z,7.06
2018-12-22T04:13:03.174Z,7.12
2018-12-22T04:14:02.430Z,7.12
2018-12-22T04:15:02.704Z,7.06
2018-12-22T04:16:03.106Z,7.12
2018-12-22T04:17:02.351Z,7.12
2018-12-22T04:18:02.686Z,7.12
2018-12-22T04:19:03.059Z,7.12
2018-12-22T04:20:02.353Z,7.12
2018-12-22T04:21:02.653Z,7.12
2018-12-22T04:22:02.977Z,7.18
2018-12-22T04:23:02.292Z,7.18
2018-12-22T04:24:02.604Z,7.18
2018-12-22T04:25:02.982Z,7.18
2018-12-22T04:26:02.337Z,7.18
2018-12-22T04:27:02.670Z,7.12
2018-12-22T04:28:03.013Z,7.18
2018-12-22T04:29:02.317Z,7.18
2018-12-22T04:30:02.613Z,7.18
2018-12-22T04:31:02.940Z,7.25
2018-12-22T04:32:03.228Z,7.25
2018-12-22T04:33:02.577Z,7.18
2018-12-22T04:34:02.935Z,7.12
2018-12-22T04:35:03.239Z,7.12
2018-12-22T04:36:02.738Z,7.12
2018-12-22T04:37:03.092Z,7.12
2018-12-22T04:38:02.356Z,7.18
2018-12-22T04:39:02.699Z,7.18
2018-12-22T04:40:03.082Z,7.12
2018-12-22T04:41:02.407Z,7.12
2018-12-22T04:42:02.683Z,7.18
2018-12-22T04:43:03.008Z,7.18
2018-12-22T04:44:02.298Z,7.12
2018-12-22T04:45:02.648Z,7.12
2018-12-22T04:46:02.974Z,7.12
2018-12-22T04:47:02.274Z,7.12
2018-12-22T04:48:02.600Z,7.18
2018-12-22T04:49:02.997Z,7.18
2018-12-22T04:50:02.327Z,7.12
2018-12-22T04:51:02.646Z,7.12
2018-12-22T04:52:02.953Z,7.12
2018-12-22T04:53:02.277Z,7.12
2018-12-22T04:54:02.598Z,7.12
2018-12-22T04:55:02.989Z,7.12
2018-12-22T04:56:02.284Z,7.12
2018-12-22T04:57:02.659Z,7.12
2018-12-22T04:58:02.934Z,7
2018-12-22T04:59:03.257Z,7.06
2018-12-22T05:00:02.515Z,7.06
2018-12-22T05:01:02.851Z,7
2018-12-22T05:02:03.204Z,7.06
2018-12-22T05:03:02.534Z,7.06
2018-12-22T05:04:02.835Z,7.06
2018-12-22T05:05:03.079Z,7.06
2018-12-22T05:06:02.365Z,7.06
2018-12-22T05:07:02.597Z,7
2018-12-22T05:08:03.006Z,7.06
2018-12-22T05:09:02.274Z,7.06
2018-12-22T05:10:02.542Z,7.06
2018-12-22T05:11:02.846Z,7.06
2018-12-22T05:12:03.248Z,7.06
2018-12-22T05:13:02.528Z,7.06
2018-12-22T05:14:02.893Z,7.06
2018-12-22T05:15:03.163Z,7.06
2018-12-22T05:16:02.426Z,7.06
2018-12-22T05:17:02.704Z,7.12
2018-12-22T05:18:03.000Z,7.06
2018-12-22T05:19:02.304Z,7.06
2018-12-22T05:20:02.615Z,7.06
2018-12-22T05:21:02.923Z,7.06
2018-12-22T05:22:03.217Z,7.06
2018-12-22T05:23:02.524Z,7.06
2018-12-22T05:24:02.854Z,7
2018-12-22T05:25:03.200Z,7
2018-12-22T05:26:02.762Z,7
2018-12-22T05:27:03.081Z,7.06
2018-12-22T05:28:02.473Z,7
2018-12-22T05:29:02.773Z,7
2018-12-22T05:30:03.126Z,7
2018-12-22T05:31:02.449Z,7
2018-12-22T05:32:03.634Z,7
2018-12-22T05:33:02.930Z,6.93
2018-12-22T05:34:03.237Z,7
2018-12-22T05:35:03.459Z,7.06
2018-12-22T05:36:02.761Z,7
2018-12-22T05:37:03.079Z,7
2018-12-22T05:38:02.360Z,7
2018-12-22T05:39:02.682Z,7
2018-12-22T05:40:03.052Z,6.93
2018-12-22T05:41:02.407Z,7
2018-12-22T05:42:02.674Z,7
2018-12-22T05:43:02.937Z,6.93
2018-12-22T05:44:03.249Z,6.93
2018-12-22T05:45:03.393Z,7
2018-12-22T05:46:02.756Z,7
2018-12-22T05:47:03.094Z,6.93
2018-12-22T05:48:03.342Z,6.93
2018-12-22T05:49:02.604Z,6.93
2018-12-22T05:50:02.950Z,6.93
2018-12-22T05:51:04.196Z,6.93
2018-12-22T05:52:02.514Z,6.93
2018-12-22T05:53:02.840Z,6.93
2018-12-22T05:54:03.158Z,6.93
2018-12-22T05:55:02.437Z,6.87
2018-12-22T05:56:02.755Z,7
2018-12-22T05:57:03.064Z,6.93
2018-12-22T05:58:02.369Z,6.93
2018-12-22T05:59:02.671Z,7
2018-12-22T06:00:03.001Z,7
2018-12-22T06:01:02.307Z,6.93
2018-12-22T06:02:02.604Z,6.93
2018-12-22T06:03:03.048Z,6.93
2018-12-22T06:04:02.417Z,6.93
2018-12-22T06:05:02.692Z,6.93
2018-12-22T06:06:03.003Z,6.93
2018-12-22T06:07:02.283Z,6.93
2018-12-22T06:08:02.600Z,6.93
2018-12-22T06:09:03.166Z,6.93
2018-12-22T06:10:02.433Z,6.87
2018-12-22T06:11:02.681Z,6.93
2018-12-22T06:12:02.992Z,6.93
2018-12-22T06:13:02.294Z,6.87
2018-12-22T06:14:02.655Z,6.87
2018-12-22T06:15:02.937Z,6.81
2018-12-22T06:16:03.227Z,6.87
2018-12-22T06:17:02.569Z,6.87
2018-12-22T06:18:02.923Z,6.81
2018-12-22T06:19:04.174Z,6.81
2018-12-22T06:20:02.428Z,6.87
2018-12-22T06:21:02.761Z,6.87
2018-12-22T06:22:03.086Z,6.81
2018-12-22T06:23:02.354Z,6.81
2018-12-22T06:24:02.604Z,6.81
2018-12-22T06:25:02.980Z,6.81
2018-12-22T06:26:02.272Z,6.81
2018-12-22T06:27:02.606Z,6.87
2018-12-22T06:28:02.938Z,6.87
2018-12-22T06:29:03.228Z,6.81
2018-12-22T06:30:09.030Z,6.87
2018-12-22T06:31:02.930Z,6.87
2018-12-22T06:32:03.253Z,6.81
2018-12-22T06:33:02.521Z,6.81
2018-12-22T06:34:02.839Z,6.81
2018-12-22T06:35:03.217Z,6.87
2018-12-22T06:36:02.526Z,6.81
2018-12-22T06:37:02.883Z,6.87
2018-12-22T06:38:03.192Z,6.87
2018-12-22T06:39:02.519Z,6.87
2018-12-22T06:40:02.827Z,6.93
2018-12-22T06:41:03.327Z,6.81
2018-12-22T06:42:02.603Z,6.81
2018-12-22T06:43:02.973Z,6.81
2018-12-22T06:44:02.294Z,6.81
2018-12-22T06:45:02.626Z,6.81
2018-12-22T06:46:02.911Z,6.87
2018-12-22T06:47:03.155Z,6.87
2018-12-22T06:48:02.499Z,6.87
2018-12-22T06:49:02.898Z,6.87
2018-12-22T06:50:03.150Z,6.81
2018-12-22T06:51:02.464Z,6.81
2018-12-22T06:52:02.753Z,6.81
2018-12-22T06:53:03.070Z,6.81
2018-12-22T06:54:02.367Z,6.81
2018-12-22T06:55:02.772Z,6.75
2018-12-22T06:56:03.118Z,6.75
2018-12-22T06:57:02.488Z,6.75
2018-12-22T06:58:02.758Z,6.75
2018-12-22T06:59:03.076Z,6.75
2018-12-22T07:00:02.359Z,6.75
2018-12-22T07:01:02.730Z,6.75
2018-12-22T07:02:03.004Z,6.75
2018-12-22T07:03:02.280Z,6.68
2018-12-22T07:04:02.610Z,6.68
2018-12-22T07:05:02.919Z,6.68
2018-12-22T07:06:04.162Z,6.68
2018-12-22T07:07:03.328Z,6.75
2018-12-22T07:08:02.594Z,6.75
2018-12-22T07:09:02.911Z,6.68
2018-12-22T07:10:03.155Z,6.68
2018-12-22T07:11:02.433Z,6.68
2018-12-22T07:12:02.732Z,6.68
2018-12-22T07:13:02.996Z,6.68
2018-12-22T07:14:02.288Z,6.62
2018-12-22T07:15:02.592Z,6.68
2018-12-22T07:16:02.924Z,6.68
2018-12-22T07:17:03.288Z,6.62
2018-12-22T07:18:02.612Z,6.68
2018-12-22T07:19:02.970Z,6.68
2018-12-22T07:20:02.315Z,6.68
2018-12-22T07:21:03.486Z,6.62
2018-12-22T07:22:02.790Z,6.68
2018-12-22T07:23:03.172Z,6.68
2018-12-22T07:24:02.453Z,6.68
2018-12-22T07:25:02.751Z,6.68
2018-12-22T07:26:02.988Z,6.68
2018-12-22T07:27:02.328Z,6.62
2018-12-22T07:28:02.612Z,6.62
2018-12-22T07:29:03.015Z,6.62
2018-12-22T07:30:02.284Z,6.62
2018-12-22T07:31:02.594Z,6.62
2018-12-22T07:32:02.942Z,6.62
2018-12-22T07:33:03.233Z,6.62
2018-12-22T07:34:02.545Z,6.62
2018-12-22T07:35:02.893Z,6.68
2018-12-22T07:36:03.149Z,6.62
2018-12-22T07:37:02.434Z,6.62
2018-12-22T07:38:02.761Z,6.62
2018-12-22T07:39:03.087Z,6.62
2018-12-22T07:40:02.414Z,6.62
2018-12-22T07:41:02.677Z,6.62
2018-12-22T07:42:03.090Z,6.56
2018-12-22T07:43:02.363Z,6.56
2018-12-22T07:44:02.690Z,6.62
2018-12-22T07:45:03.098Z,6.56
2018-12-22T07:46:02.353Z,6.56
2018-12-22T07:47:02.682Z,6.56
2018-12-22T07:48:03.017Z,6.62
2018-12-22T07:49:02.273Z,6.56
2018-12-22T07:50:02.654Z,6.62
2018-12-22T07:51:03.059Z,6.62
2018-12-22T07:52:02.349Z,6.56
2018-12-22T07:53:02.592Z,6.56
2018-12-22T07:54:02.836Z,6.56
2018-12-22T07:55:03.168Z,6.56
2018-12-22T07:56:02.436Z,6.56
2018-12-22T07:57:02.850Z,6.56
2018-12-22T07:58:03.301Z,6.56
2018-12-22T07:59:02.590Z,6.62
2018-12-22T08:00:02.927Z,6.62
2018-12-22T08:01:03.257Z,6.56
2018-12-22T08:02:02.585Z,6.62
2018-12-22T08:03:02.837Z,6.62
2018-12-22T08:04:03.153Z,6.62
2018-12-22T08:05:02.442Z,6.62
2018-12-22T08:06:02.779Z,6.62
2018-12-22T08:07:03.129Z,6.62
2018-12-22T08:08:02.453Z,6.62
2018-12-22T08:09:02.747Z,6.62
2018-12-22T08:10:03.070Z,6.62
2018-12-22T08:11:02.359Z,6.62
2018-12-22T08:12:02.703Z,6.62
2018-12-22T08:13:03.094Z,6.62
2018-12-22T08:14:02.422Z,6.62
2018-12-22T08:15:02.690Z,6.62
2018-12-22T08:16:03.015Z,6.62
2018-12-22T08:17:02.278Z,6.56
2018-12-22T08:18:02.617Z,6.62
2018-12-22T08:19:03.094Z,6.56
2018-12-22T08:20:02.357Z,6.62
2018-12-22T08:21:02.690Z,6.62
2018-12-22T08:22:03.004Z,6.62
2018-12-22T08:23:02.279Z,6.62
2018-12-22T08:24:02.608Z,6.62
2018-12-22T08:25:03.013Z,6.62
2018-12-22T08:26:02.276Z,6.62
2018-12-22T08:27:02.609Z,6.62
2018-12-22T08:28:02.927Z,6.62
2018-12-22T08:29:03.289Z,6.62
2018-12-22T08:30:02.651Z,6.56
2018-12-22T08:31:03.011Z,6.56
2018-12-22T08:32:02.284Z,6.56
2018-12-22T08:33:02.597Z,6.56
2018-12-22T08:34:02.923Z,6.56
2018-12-22T08:35:03.255Z,6.56
2018-12-22T08:36:02.534Z,6.56
2018-12-22T08:37:02.951Z,6.56
2018-12-22T08:38:04.116Z,6.56
2018-12-22T08:39:02.449Z,6.56
2018-12-22T08:40:02.758Z,6.5
2018-12-22T08:41:03.089Z,6.5
2018-12-22T08:42:02.356Z,6.5
2018-12-22T08:43:02.736Z,6.5
2018-12-22T08:44:03.007Z,6.56
2018-12-22T08:45:02.347Z,6.56
2018-12-22T08:46:02.696Z,6.5
2018-12-22T08:47:02.986Z,6.56
2018-12-22T08:48:02.291Z,6.56
2018-12-22T08:49:02.728Z,6.5
2018-12-22T08:50:08.897Z,6.5
2018-12-22T08:51:02.870Z,6.5
2018-12-22T08:52:03.160Z,6.56
2018-12-22T08:53:02.458Z,6.56
2018-12-22T08:54:02.809Z,6.56
2018-12-22T08:55:03.073Z,6.56
2018-12-22T08:56:02.349Z,6.56
2018-12-22T08:57:02.605Z,6.56
2018-12-22T08:58:02.922Z,6.56
2018-12-22T08:59:03.294Z,6.56
2018-12-22T09:00:02.685Z,6.56
2018-12-22T09:01:02.994Z,6.56
2018-12-22T09:02:02.260Z,6.5
2018-12-22T09:03:02.533Z,6.5
2018-12-22T09:04:02.860Z,6.5
2018-12-22T09:05:03.252Z,6.5
2018-12-22T09:06:02.518Z,6.5
2018-12-22T09:07:02.884Z,6.5
2018-12-22T09:08:03.181Z,6.5
2018-12-22T09:09:02.448Z,6.5
2018-12-22T09:10:02.764Z,6.5
2018-12-22T09:11:03.170Z,6.5
2018-12-22T09:12:02.444Z,6.5
2018-12-22T09:13:02.755Z,6.5
2018-12-22T09:14:03.078Z,6.5
2018-12-22T09:15:02.388Z,6.5
2018-12-22T09:16:02.780Z,6.5
2018-12-22T09:17:05.417Z,6.5
2018-12-22T09:18:02.370Z,6.43
2018-12-22T09:19:02.692Z,6.5
2018-12-22T09:20:03.011Z,6.5
2018-12-22T09:21:02.274Z,6.5
2018-12-22T09:22:02.613Z,6.5
2018-12-22T09:23:03.172Z,6.5
2018-12-22T09:24:02.663Z,6.5
2018-12-22T09:25:02.949Z,6.5
2018-12-22T09:26:03.304Z,6.43
2018-12-22T09:27:02.618Z,6.43
2018-12-22T09:28:03.024Z,6.43
2018-12-22T09:29:02.354Z,6.5
2018-12-22T09:30:02.598Z,6.43
2018-12-22T09:31:02.929Z,6.43
2018-12-22T09:32:03.362Z,6.43
2018-12-22T09:33:02.683Z,6.43
2018-12-22T09:34:03.294Z,6.43
2018-12-22T09:35:02.597Z,6.43
2018-12-22T09:36:02.933Z,6.43
2018-12-22T09:37:03.331Z,6.43
2018-12-22T09:38:02.596Z,6.43
2018-12-22T09:39:02.913Z,6.43
2018-12-22T09:40:03.297Z,6.43
2018-12-22T09:41:02.592Z,6.43
2018-12-22T09:42:02.843Z,6.43
2018-12-22T09:43:03.163Z,6.43
2018-12-22T09:44:02.448Z,6.43
2018-12-22T09:45:03.709Z,6.43
2018-12-22T09:46:03.047Z,6.43
2018-12-22T09:47:02.378Z,6.5
2018-12-22T09:48:02.735Z,6.43
2018-12-22T09:49:02.993Z,6.43
2018-12-22T09:50:02.333Z,6.43
2018-12-22T09:51:02.738Z,6.43
2018-12-22T09:52:03.003Z,6.43
2018-12-22T09:53:02.270Z,6.43
2018-12-22T09:54:02.520Z,6.43
2018-12-22T09:55:02.853Z,6.43
2018-12-22T09:56:03.207Z,6.43
2018-12-22T09:57:03.531Z,6.43
2018-12-22T09:58:03.137Z,6.43
2018-12-22T09:59:02.438Z,6.5
2018-12-22T10:00:02.799Z,6.5
2018-12-22T10:01:09.209Z,6.5
2018-12-22T10:02:02.804Z,6.5
2018-12-22T10:03:03.304Z,6.56
2018-12-22T10:04:02.754Z,6.56
2018-12-22T10:05:03.085Z,6.56
2018-12-22T10:06:02.368Z,6.56
2018-12-22T10:07:02.766Z,6.56
2018-12-22T10:08:03.072Z,6.56
2018-12-22T10:09:02.413Z,6.56
2018-12-22T10:10:02.885Z,6.56
2018-12-22T10:11:03.243Z,6.56
2018-12-22T10:12:02.530Z,6.56
2018-12-22T10:13:03.008Z,6.56
2018-12-22T10:14:02.285Z,6.56
2018-12-22T10:15:02.591Z,6.56
2018-12-22T10:16:02.832Z,6.56
2018-12-22T10:17:04.893Z,6.56
2018-12-22T10:18:02.362Z,6.62
2018-12-22T10:19:02.851Z,6.56
2018-12-22T10:20:03.215Z,6.62
2018-12-22T10:21:02.513Z,6.62
2018-12-22T10:22:02.842Z,6.62
2018-12-22T10:23:03.159Z,6.62
2018-12-22T10:24:02.433Z,6.62
2018-12-22T10:25:02.767Z,6.62
2018-12-22T10:26:03.072Z,6.62
2018-12-22T10:27:02.358Z,6.62
2018-12-22T10:28:02.687Z,6.62
2018-12-22T10:29:02.995Z,6.68
2018-12-22T10:30:02.325Z,6.68
2018-12-22T10:31:02.710Z,6.68
2018-12-22T10:32:02.999Z,6.68
2018-12-22T10:33:03.183Z,6.68
2018-12-22T10:34:02.631Z,6.68
2018-12-22T10:35:02.921Z,6.62
2018-12-22T10:36:03.246Z,6.62
2018-12-22T10:37:03.448Z,6.62
2018-12-22T10:38:02.790Z,6.68
2018-12-22T10:39:03.078Z,6.62
2018-12-22T10:40:02.428Z,6.62
2018-12-22T10:41:02.673Z,6.62
2018-12-22T10:42:02.949Z,6.62
2018-12-22T10:43:03.321Z,6.68
2018-12-22T10:44:02.635Z,6.68
2018-12-22T10:45:02.954Z,6.62
2018-12-22T10:46:03.239Z,6.62
2018-12-22T10:47:02.535Z,6.62
2018-12-22T10:48:02.867Z,6.68
2018-12-22T10:49:03.223Z,6.62
2018-12-22T10:50:02.530Z,6.62
2018-12-22T10:51:02.907Z,6.68
2018-12-22T10:52:03.204Z,6.68
2018-12-22T10:53:02.524Z,6.68
2018-12-22T10:54:02.838Z,6.68
2018-12-22T10:55:03.283Z,6.68
2018-12-22T10:56:02.613Z,6.68
2018-12-22T10:57:04.075Z,6.68
2018-12-22T10:58:02.519Z,6.68
2018-12-22T10:59:02.851Z,6.68
2018-12-22T11:00:03.250Z,6.68
2018-12-22T11:01:02.598Z,6.62
2018-12-22T11:02:02.917Z,6.68
2018-12-22T11:03:03.246Z,6.68
2018-12-22T11:04:02.532Z,6.68
2018-12-22T11:05:02.925Z,6.62
2018-12-22T11:06:03.243Z,6.62
2018-12-22T11:07:02.572Z,6.62
2018-12-22T11:08:02.852Z,6.68
2018-12-22T11:09:03.155Z,6.62
2018-12-22T11:10:02.530Z,6.62
2018-12-22T11:11:02.888Z,6.62
2018-12-22T11:12:03.209Z,6.68
2018-12-22T11:13:02.520Z,6.62
2018-12-22T11:14:02.836Z,6.62
2018-12-22T11:15:04.934Z,6.62
2018-12-22T11:16:03.241Z,6.56
2018-12-22T11:17:02.580Z,6.56
2018-12-22T11:18:02.962Z,6.56
2018-12-22T11:19:02.272Z,6.56
2018-12-22T11:20:02.597Z,6.62
2018-12-22T11:21:03.010Z,6.62
2018-12-22T11:22:02.285Z,6.62
2018-12-22T11:23:03.533Z,6.62
2018-12-22T11:24:03.046Z,6.62
2018-12-22T11:25:02.355Z,6.56
2018-12-22T11:26:03.561Z,6.62
2018-12-22T11:27:02.837Z,6.62
2018-12-22T11:28:03.163Z,6.56
2018-12-22T11:29:02.529Z,6.56
2018-12-22T11:30:02.836Z,6.56
2018-12-22T11:31:03.156Z,6.56
2018-12-22T11:32:02.473Z,6.62
2018-12-22T11:33:03.398Z,6.62
2018-12-22T11:34:02.948Z,6.56
2018-12-22T11:35:03.246Z,6.62
2018-12-22T11:36:02.573Z,6.56
2018-12-22T11:37:02.879Z,6.56
2018-12-22T11:38:03.151Z,6.56
2018-12-22T11:39:02.550Z,6.62
2018-12-22T11:40:02.831Z,6.62
2018-12-22T11:41:03.176Z,6.56
2018-12-22T11:42:02.443Z,6.56
2018-12-22T11:43:02.761Z,6.56
2018-12-22T11:44:03.165Z,6.56
2018-12-22T11:45:02.444Z,6.56
2018-12-22T11:46:03.464Z,6.56
2018-12-22T11:47:02.849Z,6.62
2018-12-22T11:48:03.158Z,6.56
2018-12-22T11:49:02.453Z,6.56
2018-12-22T11:50:02.804Z,6.56
2018-12-22T11:51:03.126Z,6.56
2018-12-22T11:52:02.486Z,6.5
2018-12-22T11:53:02.762Z,6.56
2018-12-22T11:54:03.078Z,6.56
2018-12-22T11:55:02.362Z,6.56
2018-12-22T11:56:02.737Z,6.5
2018-12-22T11:57:03.000Z,6.5
2018-12-22T11:58:02.267Z,6.56
2018-12-22T11:59:02.511Z,6.56
2018-12-22T12:00:02.840Z,6.56
2018-12-22T12:01:03.242Z,6.56
2018-12-22T12:02:09.431Z,6.5
2018-12-22T12:03:02.847Z,6.5
2018-12-22T12:04:03.173Z,6.56
2018-12-22T12:05:02.449Z,6.5
2018-12-22T12:06:02.759Z,6.5
2018-12-22T12:07:03.165Z,6.5
2018-12-22T12:08:02.436Z,6.5
2018-12-22T12:09:02.760Z,6.43
2018-12-22T12:10:03.081Z,6.43
2018-12-22T12:11:02.358Z,6.43
2018-12-22T12:12:02.702Z,6.43
2018-12-22T12:13:03.042Z,6.43
2018-12-22T12:14:02.357Z,6.43
2018-12-22T12:15:02.684Z,6.5
2018-12-22T12:16:03.004Z,6.43
2018-12-22T12:17:02.281Z,6.43
2018-12-22T12:18:02.597Z,6.43
2018-12-22T12:19:03.037Z,6.5
2018-12-22T12:20:02.354Z,6.5
2018-12-22T12:21:02.694Z,6.5
2018-12-22T12:22:03.054Z,6.43
2018-12-22T12:23:02.373Z,6.5
2018-12-22T12:24:02.730Z,6.43
2018-12-22T12:25:03.936Z,6.5
2018-12-22T12:26:03.240Z,6.43
2018-12-22T12:27:02.525Z,6.5
2018-12-22T12:28:02.855Z,6.5
2018-12-22T12:29:03.172Z,6.5
2018-12-22T12:30:02.439Z,6.5
2018-12-22T12:31:02.840Z,6.43
2018-12-22T12:32:03.150Z,6.5
2018-12-22T12:33:02.487Z,6.5
2018-12-22T12:34:02.741Z,6.5
2018-12-22T12:35:03.878Z,6.43
2018-12-22T12:36:03.318Z,6.43
2018-12-22T12:37:02.640Z,6.43
2018-12-22T12:38:03.469Z,6.43
2018-12-22T12:39:02.753Z,6.43
2018-12-22T12:40:03.959Z,6.5
2018-12-22T12:41:02.293Z,6.5
2018-12-22T12:42:02.651Z,6.5
2018-12-22T12:43:02.934Z,6.5
2018-12-22T12:44:03.230Z,6.5
2018-12-22T12:45:02.520Z,6.5
2018-12-22T12:46:02.856Z,6.5
2018-12-22T12:47:03.212Z,6.43
2018-12-22T12:48:02.539Z,6.43
2018-12-22T12:49:02.861Z,6.43
2018-12-22T12:50:03.159Z,6.5
2018-12-22T12:51:02.436Z,6.5
2018-12-22T12:52:02.811Z,6.5
2018-12-22T12:53:09.507Z,6.5
2018-12-22T12:54:03.133Z,6.43
2018-12-22T12:55:02.420Z,6.5
2018-12-22T12:56:02.685Z,6.5
2018-12-22T12:57:03.022Z,6.43
2018-12-22T12:58:02.285Z,6.43
2018-12-22T12:59:02.649Z,6.43
2018-12-22T13:00:02.934Z,6.43
2018-12-22T13:01:03.236Z,6.43
2018-12-22T13:02:02.528Z,6.43
2018-12-22T13:03:02.838Z,6.43
2018-12-22T13:04:03.259Z,6.43
2018-12-22T13:05:05.161Z,6.5
2018-12-22T13:06:02.443Z,6.43
2018-12-22T13:07:02.771Z,6.43
2018-12-22T13:08:03.085Z,6.43
2018-12-22T13:09:02.371Z,6.43
2018-12-22T13:10:02.792Z,6.43
2018-12-22T13:11:03.091Z,6.43
2018-12-22T13:12:02.351Z,6.43
2018-12-22T13:13:02.598Z,6.43
2018-12-22T13:14:02.922Z,6.43
2018-12-22T13:15:03.331Z,6.43
2018-12-22T13:16:02.600Z,6.43
2018-12-22T13:17:02.924Z,6.43
2018-12-22T13:18:03.243Z,6.43
2018-12-22T13:19:02.527Z,6.43
2018-12-22T13:20:02.849Z,6.5
2018-12-22T13:21:03.209Z,6.5
2018-12-22T13:22:02.511Z,6.5
2018-12-22T13:23:02.762Z,6.5
2018-12-22T13:24:03.073Z,6.43
2018-12-22T13:25:02.368Z,6.5
2018-12-22T13:26:02.757Z,6.56
2018-12-22T13:27:03.151Z,6.5
2018-12-22T13:28:02.437Z,6.56